createdAt,value
2022-09-02T00:01:29.576Z,101652.97
2022-09-02T00:04:05.374Z,101651.44
2022-09-02T00:06:38.857Z,101645.44
2022-09-02T00:09:15.107Z,101650.72
2022-09-02T00:11:50.625Z,101639.63
2022-09-02T00:14:26.039Z,101645.25
2022-09-02T00:17:00.997Z,101642.03
2022-09-02T00:19:34.279Z,101641.34
2022-09-02T00:22:06.951Z,101636.75
2022-09-02T00:24:40.152Z,101631.53
2022-09-02T00:27:12.828Z,101628.31
2022-09-02T00:29:45.511Z,101630.28
2022-09-02T00:32:21.592Z,101627.91
2022-09-02T00:34:56.065Z,101624.75
2022-09-02T00:37:29.620Z,101620.06
2022-09-02T00:40:02.876Z,101625.94
2022-09-02T00:42:36.608Z,101618.38
2022-09-02T00:45:10.856Z,101617.75
2022-09-02T00:47:45.456Z,101616.44
2022-09-02T00:50:21.684Z,101611.34
2022-09-02T00:52:59.268Z,101610.63
2022-09-02T00:55:35.970Z,101615.41
2022-09-02T00:58:21.467Z,101606.22
2022-09-02T01:01:03.715Z,101607.44
2022-09-02T01:03:42.317Z,101598.78
2022-09-02T01:06:29.676Z,101603.19
2022-09-02T01:09:08.517Z,101598.78
2022-09-02T01:11:43.714Z,101599.69
2022-09-02T01:14:17.680Z,101601.34
2022-09-02T01:16:52.830Z,101594.66
2022-09-02T01:19:32.638Z,101595.50
2022-09-02T01:22:17.236Z,101595.84
2022-09-02T01:24:50.914Z,101599.09
2022-09-02T01:27:25.870Z,101598.38
2022-09-02T01:30:00.891Z,101594.81
2022-09-02T01:32:33.723Z,101599.53
2022-09-02T01:35:09.214Z,101599.94
2022-09-02T01:37:50.651Z,101592.00
2022-09-02T01:40:30.658Z,101596.00
2022-09-02T01:43:07.807Z,101588.06
2022-09-02T01:45:43.631Z,101581.81
2022-09-02T01:48:21.764Z,101582.19
2022-09-02T01:50:59.856Z,101579.75
2022-09-02T01:53:34.969Z,101580.59
2022-09-02T01:56:07.779Z,101580.25
2022-09-02T01:58:40.986Z,101579.50
2022-09-02T02:01:13.844Z,101578.28
2022-09-02T02:03:47.876Z,101577.13
2022-09-02T02:06:22.217Z,101580.31
2022-09-02T02:08:56.231Z,101576.41
2022-09-02T02:11:28.990Z,101576.41
2022-09-02T02:14:04.573Z,101573.28
2022-09-02T02:16:37.344Z,101568.53
2022-09-02T02:19:10.220Z,101565.44
2022-09-02T02:21:44.321Z,101563.16
2022-09-02T02:24:19.524Z,101559.88
2022-09-02T02:26:52.431Z,101560.31
2022-09-02T02:29:26.478Z,101558.75
2022-09-02T02:31:59.338Z,101554.31
2022-09-02T02:34:32.245Z,101550.00
2022-09-02T02:37:06.115Z,101544.06
2022-09-02T02:39:41.569Z,101542.50
2022-09-02T02:42:14.488Z,101547.63
2022-09-02T02:44:48.165Z,101551.97
2022-09-02T02:47:21.057Z,101551.28
2022-09-02T02:49:53.720Z,101553.22
2022-09-02T02:52:27.222Z,101552.06
2022-09-02T02:55:01.789Z,101551.34
2022-09-02T02:57:35.116Z,101549.00
2022-09-02T03:00:13.463Z,101547.03
2022-09-02T03:02:47.172Z,101539.03
2022-09-02T03:05:19.769Z,101539.88
2022-09-02T03:07:53.415Z,101539.44
2022-09-02T03:10:27.757Z,101541.09
2022-09-02T03:13:00.927Z,101534.72
2022-09-02T03:15:34.152Z,101542.66
2022-09-02T03:18:07.254Z,101532.53
2022-09-02T03:20:41.082Z,101537.16
2022-09-02T03:23:14.839Z,101534.03
2022-09-02T03:25:53.225Z,101538.47
2022-09-02T03:28:34.113Z,101543.59
2022-09-02T03:31:09.331Z,101535.69
2022-09-02T03:33:42.184Z,101534.16
2022-09-02T03:36:23.286Z,101533.34
2022-09-02T03:38:58.485Z,101532.13
2022-09-02T03:41:35.654Z,101531.72
2022-09-02T03:44:09.331Z,101530.22
2022-09-02T03:46:42.323Z,101527.44
2022-09-02T03:49:15.452Z,101517.09
2022-09-02T03:51:48.072Z,101519.19
2022-09-02T03:54:21.274Z,101517.59
2022-09-02T03:56:55.480Z,101516.72
2022-09-02T03:59:29.691Z,101516.03
2022-09-02T04:02:03.216Z,101510.84
2022-09-02T04:04:36.484Z,101508.09
2022-09-02T04:07:09.275Z,101509.69
2022-09-02T04:09:46.567Z,101512.09
2022-09-02T04:12:21.260Z,101509.69
2022-09-02T04:14:57.658Z,101504.16
2022-09-02T04:17:30.884Z,101499.84
2022-09-02T04:20:04.250Z,101500.69
2022-09-02T04:22:39.263Z,101494.75
2022-09-02T04:25:16.660Z,101498.75
2022-09-02T04:27:53.106Z,101495.56
2022-09-02T04:30:27.130Z,101497.66
2022-09-02T04:33:00.648Z,101492.84
2022-09-02T04:35:35.322Z,101495.63
2022-09-02T04:38:08.994Z,101496.47
2022-09-02T04:40:43.303Z,101489.69
2022-09-02T04:43:19.010Z,101484.50
2022-09-02T04:45:53.223Z,101482.63
2022-09-02T04:48:26.071Z,101483.78
2022-09-02T04:50:59.492Z,101483.72
2022-09-02T04:53:32.580Z,101489.34
2022-09-02T04:56:11.245Z,101481.00
2022-09-02T04:58:45.906Z,101490.53
2022-09-02T05:01:22.034Z,101487.81
2022-09-02T05:03:55.767Z,101493.38
2022-09-02T05:06:33.352Z,101481.47
2022-09-02T05:09:08.589Z,101480.28
2022-09-02T05:11:43.634Z,101482.25
2022-09-02T05:14:17.560Z,101484.63
2022-09-02T05:16:53.870Z,101487.03
2022-09-02T05:19:27.398Z,101483.94
2022-09-02T05:22:01.886Z,101484.75
2022-09-02T05:24:40.083Z,101485.53
2022-09-02T05:27:16.660Z,101480.78
2022-09-02T05:29:55.594Z,101489.13
2022-09-02T05:32:29.213Z,101493.13
2022-09-02T05:35:02.532Z,101495.84
2022-09-02T05:37:35.792Z,101494.69
2022-09-02T05:40:14.894Z,101500.59
2022-09-02T05:42:49.750Z,101495.84
2022-09-02T05:45:24.203Z,101493.88
2022-09-02T05:47:58.152Z,101489.13
2022-09-02T05:50:33.404Z,101499.09
2022-09-02T05:53:10.020Z,101498.25
2022-09-02T05:55:46.602Z,101492.75
2022-09-02T05:58:19.466Z,101490.75
2022-09-02T06:00:54.093Z,101482.44
2022-09-02T06:03:27.290Z,101498.31
2022-09-02T06:06:04.515Z,101487.19
2022-09-02T06:08:41.480Z,101486.41
2022-09-02T06:11:14.591Z,101480.84
2022-09-02T06:13:48.729Z,101484.06
2022-09-02T06:16:24.546Z,101486.06
2022-09-02T06:18:57.822Z,101491.19
2022-09-02T06:21:31.783Z,101484.50
2022-09-02T06:24:06.350Z,101485.31
2022-09-02T06:26:40.501Z,101477.75
2022-09-02T06:29:14.043Z,101472.97
2022-09-02T06:31:50.713Z,101478.47
2022-09-02T06:34:27.248Z,101481.28
2022-09-02T06:37:01.943Z,101483.28
2022-09-02T06:39:38.115Z,101482.44
2022-09-02T06:42:11.222Z,101478.53
2022-09-02T06:44:52.684Z,101482.50
2022-09-02T06:47:28.152Z,101481.66
2022-09-02T06:50:01.464Z,101482.44
2022-09-02T06:52:34.749Z,101472.91
2022-09-02T06:55:08.304Z,101472.53
2022-09-02T06:57:41.047Z,101469.78
2022-09-02T07:00:18.309Z,101471.34
2022-09-02T07:03:12.531Z,101463.38
2022-09-02T07:05:44.944Z,101469.28
2022-09-02T07:08:17.899Z,101462.59
2022-09-02T07:10:50.818Z,101461.69
2022-09-02T07:13:23.782Z,101458.47
2022-09-02T07:15:56.917Z,101456.88
2022-09-02T07:18:30.854Z,101454.09
2022-09-02T07:21:03.899Z,101455.59
2022-09-02T07:23:41.117Z,101449.97
2022-09-02T07:26:16.371Z,101442.41
2022-09-02T07:28:51.377Z,101447.13
2022-09-02T07:31:24.535Z,101453.75
2022-09-02T07:33:59.413Z,101440.56
2022-09-02T07:36:35.030Z,101448.41
2022-09-02T07:39:09.669Z,101451.13
2022-09-02T07:41:44.819Z,101447.56
2022-09-02T07:44:18.900Z,101449.88
2022-09-02T07:46:53.462Z,101441.06
2022-09-02T07:49:29.044Z,101447.75
2022-09-02T07:52:01.883Z,101435.78
2022-09-02T07:54:34.880Z,101442.47
2022-09-02T07:57:09.704Z,101439.69
2022-09-02T07:59:43.451Z,101447.94
2022-09-02T08:02:18.626Z,101441.56
2022-09-02T08:04:53.128Z,101437.84
2022-09-02T08:07:26.083Z,101436.59
2022-09-02T08:10:01.017Z,101435.72
2022-09-02T08:12:33.877Z,101433.56
2022-09-02T08:15:07.284Z,101442.16
2022-09-02T08:17:41.695Z,101421.81
2022-09-02T08:20:17.459Z,101430.31
2022-09-02T08:22:59.255Z,101423.06
2022-09-02T08:25:43.156Z,101427.72
2022-09-02T08:28:15.896Z,101427.97
2022-09-02T08:30:48.664Z,101427.44
2022-09-02T08:33:21.410Z,101431.53
2022-09-02T08:35:55.512Z,101420.69
2022-09-02T08:38:28.258Z,101434.38
2022-09-02T08:41:01.775Z,101430.19
2022-09-02T08:43:40.859Z,101428.00
2022-09-02T08:46:18.002Z,101427.91
2022-09-02T08:48:54.725Z,101426.06
2022-09-02T08:51:37.688Z,101423.13
2022-09-02T08:54:21.259Z,101420.03
2022-09-02T08:56:54.057Z,101417.94
2022-09-02T08:59:29.122Z,101408.50
2022-09-02T09:02:17.646Z,101412.34
2022-09-02T09:05:12.627Z,101410.47
2022-09-02T09:08:00.496Z,101411.78
2022-09-02T09:10:40.779Z,101419.56
2022-09-02T09:13:51.440Z,101417.72
2022-09-02T09:16:32.413Z,101417.56
2022-09-02T09:19:11.618Z,101414.06
2022-09-02T09:21:45.453Z,101416.16
2022-09-02T09:24:27.847Z,101410.59
2022-09-02T09:27:02.091Z,101409.34
2022-09-02T09:29:36.268Z,101406.72
2022-09-02T09:32:22.665Z,101406.13
2022-09-02T09:35:00.079Z,101406.25
2022-09-02T09:37:36.540Z,101399.19
2022-09-02T09:40:26.376Z,101402.56
2022-09-02T09:43:14.630Z,101398.53
2022-09-02T09:45:49.939Z,101402.28
2022-09-02T09:48:27.597Z,101400.69
2022-09-02T09:51:16.397Z,101402.63
2022-09-02T09:53:49.756Z,101399.81
2022-09-02T09:56:36.964Z,101396.31
2022-09-02T09:59:37.649Z,101401.69
2022-09-02T10:02:21.262Z,101398.41
2022-09-02T10:04:55.329Z,101397.34
2022-09-02T10:07:39.817Z,101397.47
2022-09-02T10:10:21.755Z,101395.56
2022-09-02T10:12:59.563Z,101388.84
2022-09-02T10:15:43.959Z,101399.84
2022-09-02T10:18:24.470Z,101390.81
2022-09-02T10:21:14.877Z,101388.66
2022-09-02T10:23:56.889Z,101383.75
2022-09-02T10:26:39.003Z,101390.44
2022-09-02T10:29:48.253Z,101385.13
2022-09-02T10:32:37.244Z,101372.34
2022-09-02T10:35:14.836Z,101376.13
2022-09-02T10:38:06.104Z,101370.19
2022-09-02T10:40:45.582Z,101380.72
2022-09-02T10:43:29.874Z,101377.41
2022-09-02T10:46:09.680Z,101378.34
2022-09-02T10:48:54.594Z,101375.53
2022-09-02T10:51:38.651Z,101363.97
2022-09-02T10:54:29.558Z,101369.56
2022-09-02T10:57:11.262Z,101359.03
2022-09-02T10:59:52.199Z,101358.84
2022-09-02T11:02:31.806Z,101354.69
2022-09-02T11:05:10.573Z,101350.31
2022-09-02T11:07:48.283Z,101352.13
2022-09-02T11:10:26.734Z,101347.28
2022-09-02T11:13:04.475Z,101351.88
2022-09-02T11:15:44.564Z,101337.97
2022-09-02T11:18:27.996Z,101335.88
2022-09-02T11:21:06.959Z,101337.50
2022-09-02T11:23:45.180Z,101334.00
2022-09-02T11:26:23.830Z,101333.13
2022-09-02T11:29:03.806Z,101329.34
2022-09-02T11:31:43.210Z,101329.75
2022-09-02T11:34:25.867Z,101320.63
2022-09-02T11:36:58.593Z,101310.97
2022-09-02T11:39:51.522Z,101315.06
2022-09-02T11:42:45.233Z,101308.66
2022-09-02T11:45:34.176Z,101312.34
2022-09-02T11:48:22.534Z,101311.84
2022-09-02T11:51:31.289Z,101308.34
2022-09-02T11:54:06.526Z,101301.81
2022-09-02T11:56:43.104Z,101303.34
2022-09-02T12:00:07.556Z,101305.28
2022-09-02T12:02:50.855Z,101295.63
2022-09-02T12:05:47.803Z,101291.97
2022-09-02T12:08:58.084Z,101295.09
2022-09-02T12:11:45.998Z,101301.88
2022-09-02T12:15:07.508Z,101297.22
2022-09-02T12:17:46.886Z,101294.97
2022-09-02T12:20:51.459Z,101296.66
2022-09-02T12:24:12.941Z,101288.31
2022-09-02T12:27:09.411Z,101274.84
2022-09-02T12:29:43.717Z,101278.28
2022-09-02T12:33:04.938Z,101277.22
2022-09-02T12:35:57.513Z,101275.94
2022-09-02T12:38:35.161Z,101286.94
2022-09-02T12:41:22.499Z,101286.00
2022-09-02T12:44:10.119Z,101278.34
2022-09-02T12:46:58.570Z,101259.66
2022-09-02T12:49:42.623Z,101270.63
2022-09-02T12:52:45.651Z,101271.41
2022-09-02T12:55:25.118Z,101264.53
2022-09-02T12:58:09.201Z,101260.41
2022-09-02T13:00:58.800Z,101257.63
2022-09-02T13:03:50.522Z,101255.97
2022-09-02T13:06:32.783Z,101246.03
2022-09-02T13:09:53.021Z,101246.38
2022-09-02T13:12:48.688Z,101235.88
2022-09-02T13:15:32.954Z,101245.28
2022-09-02T13:18:41.242Z,101240.13
2022-09-02T13:21:35.454Z,101235.56
2022-09-02T13:24:56.178Z,101237.66
2022-09-02T13:28:03.214Z,101231.03
2022-09-02T13:30:53.748Z,101224.28
2022-09-02T13:33:27.685Z,101222.00
2022-09-02T13:36:00.713Z,101226.59
2022-09-02T13:38:33.510Z,101222.69
2022-09-02T13:41:06.580Z,101224.34
2022-09-02T13:43:40.720Z,101227.94
2022-09-02T13:46:13.765Z,101221.88
2022-09-02T13:48:46.481Z,101212.19
2022-09-02T13:51:19.335Z,101207.50
2022-09-02T13:54:22.124Z,101210.41
2022-09-02T13:56:45.193Z,101204.22
2022-09-02T13:59:32.506Z,101195.44
2022-09-02T14:02:22.972Z,101200.41
2022-09-02T14:05:00.852Z,101196.06
2022-09-02T14:07:37.972Z,101203.03
2022-09-02T14:10:13.232Z,101193.72
2022-09-02T14:12:46.499Z,101198.16
2022-09-02T14:15:26.911Z,101188.88
2022-09-02T14:18:18.273Z,101190.53
2022-09-02T14:20:58.654Z,101183.50
2022-09-02T14:23:34.512Z,101184.63
2022-09-02T14:26:07.940Z,101179.69
2022-09-02T14:28:40.574Z,101173.78
2022-09-02T14:31:26.700Z,101174.53
2022-09-02T14:33:59.407Z,101178.03
2022-09-02T14:36:37.602Z,101162.88
2022-09-02T14:39:13.606Z,101169.66
2022-09-02T14:41:49.319Z,101160.13
2022-09-02T14:44:26.304Z,101165.34
2022-09-02T14:47:02.625Z,101157.03
2022-09-02T14:49:39.296Z,101155.09
2022-09-02T14:52:19.920Z,101153.53
2022-09-02T14:54:54.812Z,101161.06
2022-09-02T14:57:32.571Z,101143.38
2022-09-02T15:00:09.391Z,101148.66
2022-09-02T15:02:46.372Z,101137.31
2022-09-02T15:05:19.396Z,101140.78
2022-09-02T15:07:52.265Z,101134.34
2022-09-02T15:10:26.153Z,101136.97
2022-09-02T15:12:59.482Z,101132.94
2022-09-02T15:15:32.309Z,101137.50
2022-09-02T15:18:09.005Z,101127.56
2022-09-02T15:20:42.933Z,101126.88
2022-09-02T15:23:15.884Z,101132.81
2022-09-02T15:25:48.687Z,101128.16
2022-09-02T15:28:21.409Z,101127.22
2022-09-02T15:30:58.568Z,101119.34
2022-09-02T15:33:32.767Z,101119.09
2022-09-02T15:36:11.510Z,101117.94
2022-09-02T15:38:44.443Z,101110.38
2022-09-02T15:41:19.463Z,101109.75
2022-09-02T15:43:53.295Z,101112.66
2022-09-02T15:46:28.493Z,101106.78
2022-09-02T15:49:04.157Z,101100.84
2022-09-02T15:51:39.003Z,101110.25
2022-09-02T15:54:15.485Z,101097.44
2022-09-02T15:56:49.972Z,101094.09
2022-09-02T15:59:25.096Z,101099.47
2022-09-02T16:01:58.650Z,101094.59
2022-09-02T16:04:33.238Z,101093.81
2022-09-02T16:07:06.202Z,101093.19
2022-09-02T16:09:39.104Z,101095.31
2022-09-02T16:12:12.572Z,101089.75
2022-09-02T16:14:49.167Z,101090.44
2022-09-02T16:17:23.815Z,101090.59
2022-09-02T16:19:58.747Z,101084.41
2022-09-02T16:22:31.502Z,101082.63
2022-09-02T16:25:04.125Z,101073.59
2022-09-02T16:27:55.829Z,101084.84
2022-09-02T16:30:29.922Z,101073.44
2022-09-02T16:33:02.747Z,101070.00
2022-09-02T16:35:39.093Z,101077.97
2022-09-02T16:38:11.801Z,101072.81
2022-09-02T16:40:54.022Z,101072.19
2022-09-02T16:43:27.120Z,101072.25
2022-09-02T16:46:02.974Z,101068.09
2022-09-02T16:48:35.804Z,101064.22
2022-09-02T16:51:09.713Z,101057.63
2022-09-02T16:53:42.956Z,101050.00
2022-09-02T16:56:17.146Z,101055.78
2022-09-02T16:58:49.952Z,101063.81
2022-09-02T17:01:23.521Z,101048.97
2022-09-02T17:03:56.921Z,101055.34
2022-09-02T17:06:31.880Z,101056.91
2022-09-02T17:09:05.054Z,101055.03
2022-09-02T17:11:41.490Z,101047.22
2022-09-02T17:14:16.646Z,101051.94
2022-09-02T17:16:51.613Z,101051.34
2022-09-02T17:19:28.426Z,101047.78
2022-09-02T17:22:05.627Z,101044.91
2022-09-02T17:24:41.801Z,101041.84
2022-09-02T17:27:14.505Z,101039.34
2022-09-02T17:29:49.685Z,101038.00
2022-09-02T17:32:22.798Z,101042.56
2022-09-02T17:34:55.579Z,101041.25
2022-09-02T17:37:29.952Z,101040.25
2022-09-02T17:40:02.879Z,101039.69
2022-09-02T17:42:34.689Z,101039.34
2022-09-02T17:45:07.979Z,101042.72
2022-09-02T17:47:40.625Z,101043.63
2022-09-02T17:50:17.794Z,101036.28
2022-09-02T17:52:52.211Z,101045.16
2022-09-02T17:55:24.904Z,101044.16
2022-09-02T17:58:08.311Z,101048.44
2022-09-02T18:00:50.296Z,101041.13
2022-09-02T18:03:32.759Z,101039.97
2022-09-02T18:06:15.235Z,101039.31
2022-09-02T18:08:56.587Z,101041.03
2022-09-02T18:11:30.036Z,101042.97
2022-09-02T18:14:15.382Z,101037.03
2022-09-02T18:17:00.071Z,101035.00
2022-09-02T18:19:45.943Z,101041.41
2022-09-02T18:22:44.824Z,101033.28
2022-09-02T18:25:34.118Z,101032.22
2022-09-02T18:28:17.625Z,101035.66
2022-09-02T18:30:56.370Z,101035.22
2022-09-02T18:33:47.043Z,101035.47
2022-09-02T18:36:29.785Z,101038.31
2022-09-02T18:39:20.591Z,101042.19
2022-09-02T18:42:06.573Z,101038.31
2022-09-02T18:44:45.596Z,101054.53
2022-09-02T18:47:21.830Z,101055.78
2022-09-02T18:49:57.303Z,101055.59
2022-09-02T18:52:30.159Z,101047.19
2022-09-02T18:55:09.874Z,101044.84
2022-09-02T18:57:48.892Z,101048.28
2022-09-02T19:00:25.140Z,101050.16
2022-09-02T19:03:02.445Z,101051.72
2022-09-02T19:05:36.362Z,101046.09
2022-09-02T19:08:29.447Z,101050.00
2022-09-02T19:11:06.809Z,101051.25
2022-09-02T19:13:47.327Z,101054.53
2022-09-02T19:16:22.478Z,101050.66
2022-09-02T19:18:56.550Z,101054.84
2022-09-02T19:21:36.452Z,101055.31
2022-09-02T19:24:12.910Z,101054.25
2022-09-02T19:26:47.393Z,101053.59
2022-09-02T19:29:25.365Z,101058.56
2022-09-02T19:31:58.435Z,101059.69
2022-09-02T19:34:35.536Z,101060.28
2022-09-02T19:37:11.901Z,101056.38
2022-09-02T19:39:44.691Z,101061.34
2022-09-02T19:42:24.092Z,101052.16
2022-09-02T19:45:00.132Z,101054.78
2022-09-02T19:50:27.245Z,101060.06
2022-09-02T19:53:00.221Z,101072.84
2022-09-02T19:55:33.645Z,101067.53
2022-09-02T19:58:06.504Z,101075.19
2022-09-02T20:00:43.332Z,101067.84
2022-09-02T20:03:16.495Z,101067.81
2022-09-02T20:05:50.551Z,101075.56
2022-09-02T20:08:28.800Z,101072.59
2022-09-02T20:11:03.302Z,101075.84
2022-09-02T20:13:41.101Z,101080.69
2022-09-02T20:16:20.546Z,101072.63
2022-09-02T20:18:56.649Z,101071.88
2022-09-02T20:21:32.156Z,101077.16
2022-09-02T20:24:08.121Z,101074.19
2022-09-02T20:26:51.017Z,101074.66
2022-09-02T20:29:39.573Z,101076.34
2022-09-02T20:32:29.998Z,101070.66
2022-09-02T20:35:13.322Z,101070.66
2022-09-02T20:37:55.239Z,101073.59
2022-09-02T20:40:35.703Z,101066.44
2022-09-02T20:43:35.038Z,101070.59
2022-09-02T20:46:22.091Z,101060.75
2022-09-02T20:49:12.994Z,101064.38
2022-09-02T20:51:53.412Z,101060.25
2022-09-02T20:54:38.292Z,101058.69
2022-09-02T20:57:32.059Z,101061.13
2022-09-02T21:00:10.085Z,101054.03
2022-09-02T21:02:49.440Z,101058.88
2022-09-02T21:05:30.440Z,101053.06
2022-09-02T21:08:08.289Z,101059.28
2022-09-02T21:10:43.965Z,101054.47
2022-09-02T21:13:22.499Z,101054.56
2022-09-02T21:16:00.271Z,101058.28
2022-09-02T21:18:41.534Z,101055.84
2022-09-02T21:21:22.740Z,101051.97
2022-09-02T21:24:02.523Z,101047.94
2022-09-02T21:26:48.269Z,101048.63
2022-09-02T21:29:27.556Z,101047.00
2022-09-02T21:32:05.649Z,101037.94
2022-09-02T21:34:44.478Z,101045.03
2022-09-02T21:37:20.630Z,101041.00
2022-09-02T21:39:58.514Z,101033.50
2022-09-02T21:42:41.502Z,101037.88
2022-09-02T21:45:19.130Z,101037.34
2022-09-02T21:47:59.413Z,101030.16
2022-09-02T21:50:46.408Z,101031.81
2022-09-02T21:53:33.551Z,101033.06
2022-09-02T21:56:21.018Z,101024.03
2022-09-02T21:59:17.170Z,101025.56
2022-09-02T22:01:57.427Z,101021.78
2022-09-02T22:04:44.308Z,101027.16
2022-09-02T22:07:22.887Z,101023.72
2022-09-02T22:10:08.882Z,101012.88
2022-09-02T22:12:48.847Z,101016.91
2022-09-02T22:15:28.585Z,101014.97
2022-09-02T22:18:11.183Z,101016.78
2022-09-02T22:20:45.430Z,101011.41
2022-09-02T22:23:26.191Z,101017.00
2022-09-02T22:26:08.503Z,101010.31
2022-09-02T22:28:45.511Z,101016.69
2022-09-02T22:31:26.012Z,101007.84
2022-09-02T22:34:02.913Z,101006.53
2022-09-02T22:36:43.150Z,101014.25
2022-09-02T22:39:17.076Z,101008.53
2022-09-02T22:41:59.950Z,101007.88
2022-09-02T22:44:57.355Z,100998.72
2022-09-02T22:47:50.396Z,101008.53
2022-09-02T22:50:46.458Z,101004.19
2022-09-02T22:53:19.211Z,101004.41
2022-09-02T22:56:01.229Z,101004.41
2022-09-02T22:58:56.124Z,101010.69
2022-09-02T23:01:36.449Z,100999.81
2022-09-02T23:04:25.479Z,100999.03
2022-09-02T23:07:01.675Z,101002.94
2022-09-02T23:09:36.379Z,100998.38
2022-09-02T23:12:26.040Z,100997.59
2022-09-02T23:15:15.597Z,100994.56
2022-09-02T23:18:03.435Z,100990.09
2022-09-02T23:20:46.455Z,100988.44
2022-09-02T23:23:38.963Z,100983.63
2022-09-02T23:26:25.897Z,100983.38
2022-09-02T23:29:10.745Z,100985.59
2022-09-02T23:32:16.673Z,100981.28
2022-09-02T23:35:12.455Z,100985.72
2022-09-02T23:38:02.459Z,100976.22
2022-09-02T23:40:41.447Z,100981.03
2022-09-02T23:43:16.778Z,100973.44
2022-09-02T23:45:49.738Z,100972.66
2022-09-02T23:48:44.074Z,100968.06
2022-09-02T23:51:20.134Z,100967.09
2022-09-02T23:54:06.571Z,100968.19
2022-09-02T23:56:57.138Z,100964.63
2022-09-02T23:59:50.719Z,100961.84
